^^
Station Historical Data
Daily Summary for September 16, 2017 Units:  Both    English   Metric
« Previous Day
Next Day »
Daily Weekly Monthly Yearly Custom
  High: Low: Average:
Temperature: TemperatureF °F /  -17.8 °C 56.7 °F /  13.7 °C 72.7 °F /  22.6 °C
Dew Point: DewpointF °F /  -17.8 °C 29.7 °F /  -1.3 °C 34.1 °F /  1.2 °C
Humidity: Humidity% 12% 26%
Wind Speed: WindSpeedMPHmph /  0km/h - 1.2mph /  1.9km/h
Wind Gust: WindSpeedGustMPHmph /  0km/h - -
Wind- - SSE
Pressure: PressureIn in /  0 hPa 29.70 in /  1005.6 hPa -
Precipitation: 0.00 in /  0 mm    
Historical Graphs
 
 
Tabular Data for September 16, 2017
Time Temperature Dew Point Pressure Wind Wind Speed Wind Gust Humidity Rainfall Rate (Hourly) solar Conditions
TemperatureF °F /  -17.8 °C DewpointF °F /  -17.8 °C PressureInin /  0hPa Calm     Humidity% HourlyPrecipInin /  0mm SolarRadiationWatts/m^2 W/m2 Conditions
00:04 64.0 °F /  17.8 °C 36.5 °F /  2.5 °C 29.83in /  1010hPa Calm     36% 0.00in /  0mm 0.0 W/m2
00:10 63.9 °F /  17.7 °C 37.0 °F /  2.8 °C 29.83in /  1010hPa Calm     37% 0.00in /  0mm 0.0 W/m2
00:16 63.5 °F /  17.5 °C 36.7 °F /  2.6 °C 29.83in /  1010hPa Calm   2.0mph /  3.2km/h 37% 0.00in /  0mm 0.0 W/m2
00:22 63.3 °F /  17.4 °C 36.7 °F /  2.6 °C 29.83in /  1010hPa Calm   2.0mph /  3.2km/h 37% 0.00in /  0mm 0.0 W/m2
00:28 63.1 °F /  17.3 °C 36.5 °F /  2.5 °C 29.83in /  1010hPa Calm   2.0mph /  3.2km/h 37% 0.00in /  0mm 0.0 W/m2
00:34 63.1 °F /  17.3 °C 36.5 °F /  2.5 °C 29.83in /  1010hPa ESE 0.9mph /  1.4km/h 3.0mph /  4.8km/h 37% 0.00in /  0mm 0.0 W/m2
00:40 63.0 °F /  17.2 °C 36.3 °F /  2.4 °C 29.83in /  1010hPa Calm   1.0mph /  1.6km/h 37% 0.00in /  0mm 0.0 W/m2
00:46 63.0 °F /  17.2 °C 36.3 °F /  2.4 °C 29.84in /  1010.4hPa Calm   1.0mph /  1.6km/h 37% 0.00in /  0mm 0.0 W/m2
00:52 62.8 °F /  17.1 °C 36.9 °F /  2.7 °C 29.83in /  1010hPa Calm   1.0mph /  1.6km/h 38% 0.00in /  0mm 0.0 W/m2
00:58 62.8 °F /  17.1 °C 36.9 °F /  2.7 °C 29.83in /  1010hPa Calm   4.0mph /  6.4km/h 38% 0.00in /  0mm 0.0 W/m2
01:04 62.6 °F /  17 °C 36.7 °F /  2.6 °C 29.83in /  1010hPa Calm   2.0mph /  3.2km/h 38% 0.00in /  0mm 0.0 W/m2
01:11 62.4 °F /  16.9 °C 36.5 °F /  2.5 °C 29.83in /  1010hPa Calm   4.0mph /  6.4km/h 38% 0.00in /  0mm 0.0 W/m2
01:17 62.4 °F /  16.9 °C 36.5 °F /  2.5 °C 29.83in /  1010hPa Calm   2.0mph /  3.2km/h 38% 0.00in /  0mm 0.0 W/m2
01:23 62.2 °F /  16.8 °C 36.3 °F /  2.4 °C 29.83in /  1010hPa Calm   3.0mph /  4.8km/h 38% 0.00in /  0mm 0.0 W/m2
01:29 62.1 °F /  16.7 °C 36.1 °F /  2.3 °C 29.83in /  1010hPa ENE 0.9mph /  1.4km/h 3.0mph /  4.8km/h 38% 0.00in /  0mm 0.0 W/m2
01:35 62.1 °F /  16.7 °C 36.1 °F /  2.3 °C 29.83in /  1010hPa SE 2.0mph /  3.2km/h 2.0mph /  3.2km/h 38% 0.00in /  0mm 0.0 W/m2
01:41 62.1 °F /  16.7 °C 35.4 °F /  1.9 °C 29.83in /  1010hPa Calm   2.0mph /  3.2km/h 37% 0.00in /  0mm 0.0 W/m2
01:47 62.1 °F /  16.7 °C 35.4 °F /  1.9 °C 29.83in /  1010hPa Calm   1.0mph /  1.6km/h 37% 0.00in /  0mm 0.0 W/m2
01:53 61.9 °F /  16.6 °C 35.2 °F /  1.8 °C 29.82in /  1009.7hPa Calm   3.0mph /  4.8km/h 37% 0.00in /  0mm 0.0 W/m2
01:59 61.9 °F /  16.6 °C 35.2 °F /  1.8 °C 29.82in /  1009.7hPa Calm   1.0mph /  1.6km/h 37% 0.00in /  0mm 0.0 W/m2
02:05 62.1 °F /  16.7 °C 35.4 °F /  1.9 °C 29.82in /  1009.7hPa Calm     37% 0.00in /  0mm 0.0 W/m2
02:11 62.2 °F /  16.8 °C 34.9 °F /  1.6 °C 29.82in /  1009.7hPa SSE 0.9mph /  1.4km/h 2.0mph /  3.2km/h 36% 0.00in /  0mm 0.0 W/m2
02:17 62.2 °F /  16.8 °C 34.9 °F /  1.6 °C 29.82in /  1009.7hPa Calm     36% 0.00in /  0mm 0.0 W/m2
02:23 62.1 °F /  16.7 °C 34.9 °F /  1.6 °C 29.82in /  1009.7hPa SSE 0.9mph /  1.4km/h 4.0mph /  6.4km/h 36% 0.00in /  0mm 0.0 W/m2
02:29 62.1 °F /  16.7 °C 34.2 °F /  1.2 °C 29.83in /  1010hPa Calm   1.0mph /  1.6km/h 35% 0.00in /  0mm 0.0 W/m2
02:35 62.1 °F /  16.7 °C 34.2 °F /  1.2 °C 29.83in /  1010hPa NE 4.9mph /  7.9km/h 5.0mph /  8km/h 35% 0.00in /  0mm 0.0 W/m2
02:41 63.0 °F /  17.2 °C 34.2 °F /  1.2 °C 29.83in /  1010hPa ENE 2.0mph /  3.2km/h 4.0mph /  6.4km/h 34% 0.00in /  0mm 0.0 W/m2
02:47 63.1 °F /  17.3 °C 33.6 °F /  0.9 °C 29.82in /  1009.7hPa Calm   1.0mph /  1.6km/h 33% 0.00in /  0mm 0.0 W/m2
02:53 63.3 °F /  17.4 °C 33.8 °F /  1 °C 29.83in /  1010hPa Calm   8.0mph /  12.9km/h 33% 0.00in /  0mm 0.0 W/m2
02:59 63.7 °F /  17.6 °C 34.0 °F /  1.1 °C 29.83in /  1010hPa ESE 4.9mph /  7.9km/h 9.0mph /  14.5km/h 33% 0.00in /  0mm 0.0 W/m2
03:05 63.9 °F /  17.7 °C 34.2 °F /  1.2 °C 29.83in /  1010hPa NNE 0.9mph /  1.4km/h 7.0mph /  11.3km/h 33% 0.00in /  0mm 0.0 W/m2
03:11 64.0 °F /  17.8 °C 34.3 °F /  1.3 °C 29.83in /  1010hPa East 0.9mph /  1.4km/h 5.0mph /  8km/h 33% 0.00in /  0mm 0.0 W/m2
03:17 64.0 °F /  17.8 °C 34.3 °F /  1.3 °C 29.83in /  1010hPa Calm   3.0mph /  4.8km/h 33% 0.00in /  0mm 0.0 W/m2
03:23 63.9 °F /  17.7 °C 34.2 °F /  1.2 °C 29.83in /  1010hPa Calm   4.0mph /  6.4km/h 33% 0.00in /  0mm 0.0 W/m2
03:29 63.5 °F /  17.5 °C 33.8 °F /  1 °C 29.83in /  1010hPa NE 2.0mph /  3.2km/h 5.0mph /  8km/h 33% 0.00in /  0mm 0.0 W/m2
03:35 63.3 °F /  17.4 °C 34.5 °F /  1.4 °C 29.83in /  1010hPa Calm   2.0mph /  3.2km/h 34% 0.00in /  0mm 0.0 W/m2
03:41 63.0 °F /  17.2 °C 34.2 °F /  1.2 °C 29.82in /  1009.7hPa NE 4.0mph /  6.4km/h 5.0mph /  8km/h 34% 0.00in /  0mm 0.0 W/m2
03:47 62.8 °F /  17.1 °C 34.7 °F /  1.5 °C 29.82in /  1009.7hPa ENE 2.0mph /  3.2km/h 3.0mph /  4.8km/h 35% 0.00in /  0mm 0.0 W/m2
03:53 62.4 °F /  16.9 °C 34.3 °F /  1.3 °C 29.82in /  1009.7hPa NE 2.0mph /  3.2km/h 4.0mph /  6.4km/h 35% 0.00in /  0mm 0.0 W/m2
03:59 62.2 °F /  16.8 °C 34.2 °F /  1.2 °C 29.82in /  1009.7hPa ENE 2.9mph /  4.7km/h 6.0mph /  9.7km/h 35% 0.00in /  0mm 0.0 W/m2
04:05 62.1 °F /  16.7 °C 34.2 °F /  1.2 °C 29.81in /  1009.4hPa East 0.9mph /  1.4km/h 8.0mph /  12.9km/h 35% 0.00in /  0mm 0.0 W/m2
04:11 61.9 °F /  16.6 °C 34.0 °F /  1.1 °C 29.82in /  1009.7hPa ENE 2.0mph /  3.2km/h 4.0mph /  6.4km/h 35% 0.00in /  0mm 0.0 W/m2
04:17 61.9 °F /  16.6 °C 34.0 °F /  1.1 °C 29.82in /  1009.7hPa Calm   5.0mph /  8km/h 35% 0.00in /  0mm 0.0 W/m2
04:23 61.5 °F /  16.4 °C 33.6 °F /  0.9 °C 29.81in /  1009.4hPa East 0.9mph /  1.4km/h 2.0mph /  3.2km/h 35% 0.00in /  0mm 0.0 W/m2
04:29 61.5 °F /  16.4 °C 33.6 °F /  0.9 °C 29.81in /  1009.4hPa Calm     35% 0.00in /  0mm 0.0 W/m2
04:35 61.3 °F /  16.3 °C 33.4 °F /  0.8 °C 29.81in /  1009.4hPa Calm   3.0mph /  4.8km/h 35% 0.00in /  0mm 0.0 W/m2
04:41 61.2 °F /  16.2 °C 33.3 °F /  0.7 °C 29.81in /  1009.4hPa Calm   2.0mph /  3.2km/h 35% 0.00in /  0mm 0.0 W/m2
04:47 61.0 °F /  16.1 °C 33.1 °F /  0.6 °C 29.81in /  1009.4hPa Calm   1.0mph /  1.6km/h 35% 0.00in /  0mm 0.0 W/m2
04:53 61.0 °F /  16.1 °C 33.1 °F /  0.6 °C 29.81in /  1009.4hPa Calm     35% 0.00in /  0mm 0.0 W/m2
04:59 60.6 °F /  15.9 °C 33.4 °F /  0.8 °C 29.82in /  1009.7hPa Calm     36% 0.00in /  0mm 0.0 W/m2
05:05 60.3 °F /  15.7 °C 32.5 °F /  0.3 °C 29.82in /  1009.7hPa Calm     35% 0.00in /  0mm 0.0 W/m2
05:13 59.7 °F /  15.4 °C 32.7 °F /  0.4 °C 29.82in /  1009.7hPa Calm     36% 0.00in /  0mm 0.0 W/m2
05:19 59.4 °F /  15.2 °C 33.1 °F /  0.6 °C 29.82in /  1009.7hPa Calm     37% 0.00in /  0mm 0.0 W/m2
05:25 58.8 °F /  14.9 °C 32.5 °F /  0.3 °C 29.82in /  1009.7hPa Calm     37% 0.00in /  0mm 0.0 W/m2
05:31 58.5 °F /  14.7 °C 32.4 °F /  0.2 °C 29.82in /  1009.7hPa Calm     37% 0.00in /  0mm 0.0 W/m2
05:37 58.1 °F /  14.5 °C 32.5 °F /  0.3 °C 29.82in /  1009.7hPa Calm     38% 0.00in /  0mm 0.0 W/m2
05:43 57.9 °F /  14.4 °C 31.8 °F /  -0.1 °C 29.82in /  1009.7hPa ENE 2.0mph /  3.2km/h 2.0mph /  3.2km/h 37% 0.00in /  0mm 0.0 W/m2
05:49 57.7 °F /  14.3 °C 30.9 °F /  -0.6 °C 29.82in /  1009.7hPa East 0.9mph /  1.4km/h 2.0mph /  3.2km/h 36% 0.00in /  0mm 0.0 W/m2
05:55 57.9 °F /  14.4 °C 31.1 °F /  -0.5 °C 29.83in /  1010hPa Calm   1.0mph /  1.6km/h 36% 0.00in /  0mm 0.0 W/m2
06:01 57.9 °F /  14.4 °C 31.1 °F /  -0.5 °C 29.83in /  1010hPa Calm   2.0mph /  3.2km/h 36% 0.00in /  0mm 0.0 W/m2
06:07 57.9 °F /  14.4 °C 31.1 °F /  -0.5 °C 29.83in /  1010hPa Calm     36% 0.00in /  0mm 0.0 W/m2
06:13 57.7 °F /  14.3 °C 30.9 °F /  -0.6 °C 29.82in /  1009.7hPa Calm     36% 0.00in /  0mm 0.0 W/m2
06:19 57.6 °F /  14.2 °C 31.5 °F /  -0.3 °C 29.82in /  1009.7hPa Calm     37% 0.00in /  0mm 0.0 W/m2
06:25 57.4 °F /  14.1 °C 31.3 °F /  -0.4 °C 29.83in /  1010hPa Calm   1.0mph /  1.6km/h 37% 0.00in /  0mm 0.0 W/m2
06:31 57.0 °F /  13.9 °C 30.9 °F /  -0.6 °C 29.83in /  1010hPa Calm     37% 0.00in /  0mm 0.0 W/m2
06:37 56.8 °F /  13.8 °C 30.9 °F /  -0.6 °C 29.84in /  1010.4hPa SE 0.9mph /  1.4km/h 3.0mph /  4.8km/h 37% 0.00in /  0mm 0.0 W/m2
06:43 56.8 °F /  13.8 °C 30.9 °F /  -0.6 °C 29.83in /  1010hPa Calm     37% 0.00in /  0mm 0.0 W/m2
06:49 56.8 °F /  13.8 °C 30.9 °F /  -0.6 °C 29.83in /  1010hPa Calm     37% 0.00in /  0mm 0.0 W/m2
06:55 56.7 °F /  13.7 °C 31.3 °F /  -0.4 °C 29.84in /  1010.4hPa Calm   1.0mph /  1.6km/h 38% 0.00in /  0mm 7.0 W/m2
07:01 56.7 °F /  13.7 °C 30.7 °F /  -0.7 °C 29.84in /  1010.4hPa Calm   1.0mph /  1.6km/h 37% 0.00in /  0mm 12.0 W/m2
07:07 56.7 °F /  13.7 °C 30.7 °F /  -0.7 °C 29.85in /  1010.7hPa Calm   3.0mph /  4.8km/h 37% 0.00in /  0mm 16.0 W/m2
07:13 56.7 °F /  13.7 °C 30.7 °F /  -0.7 °C 29.85in /  1010.7hPa Calm     37% 0.00in /  0mm 21.0 W/m2
07:19 56.7 °F /  13.7 °C 30.7 °F /  -0.7 °C 29.85in /  1010.7hPa Calm     37% 0.00in /  0mm 28.0 W/m2
07:25 56.7 °F /  13.7 °C 30.7 °F /  -0.7 °C 29.85in /  1010.7hPa Calm   2.0mph /  3.2km/h 37% 0.00in /  0mm 33.0 W/m2
07:31 56.7 °F /  13.7 °C 30.7 °F /  -0.7 °C 29.85in /  1010.7hPa Calm     37% 0.00in /  0mm 40.0 W/m2
07:37 56.8 °F /  13.8 °C 31.5 °F /  -0.3 °C 29.85in /  1010.7hPa Calm   1.0mph /  1.6km/h 38% 0.00in /  0mm 46.0 W/m2
07:43 57.2 °F /  14 °C 32.5 °F /  0.3 °C 29.85in /  1010.7hPa Calm     39% 0.00in /  0mm 53.0 W/m2
07:49 57.6 °F /  14.2 °C 32.2 °F /  0.1 °C 29.85in /  1010.7hPa Calm   1.0mph /  1.6km/h 38% 0.00in /  0mm 60.0 W/m2
07:55 57.9 °F /  14.4 °C 31.8 °F /  -0.1 °C 29.85in /  1010.7hPa Calm     37% 0.00in /  0mm 65.0 W/m2
08:07 59.0 °F /  15 °C 32.7 °F /  0.4 °C 29.86in /  1011.1hPa Calm     37% 0.00in /  0mm 74.0 W/m2
08:13 59.5 °F /  15.3 °C 32.5 °F /  0.3 °C 29.86in /  1011.1hPa SE 2.0mph /  3.2km/h 2.0mph /  3.2km/h 36% 0.00in /  0mm 77.0 W/m2
08:19 60.3 °F /  15.7 °C 32.5 °F /  0.3 °C 29.86in /  1011.1hPa Calm     35% 0.00in /  0mm 81.0 W/m2
08:25 61.0 °F /  16.1 °C 32.4 °F /  0.2 °C 29.86in /  1011.1hPa Calm     34% 0.00in /  0mm 86.0 W/m2
08:31 61.9 °F /  16.6 °C 31.6 °F /  -0.2 °C 29.86in /  1011.1hPa Calm     32% 0.00in /  0mm 93.0 W/m2
08:37 63.0 °F /  17.2 °C 32.7 °F /  0.4 °C 29.86in /  1011.1hPa Calm     32% 0.00in /  0mm 93.0 W/m2
08:43 64.4 °F /  18 °C 33.1 °F /  0.6 °C 29.86in /  1011.1hPa Calm   1.0mph /  1.6km/h 31% 0.00in /  0mm 98.0 W/m2
08:49 65.7 °F /  18.7 °C 33.4 °F /  0.8 °C 29.86in /  1011.1hPa Calm     30% 0.00in /  0mm 104.0 W/m2
08:55 66.7 °F /  19.3 °C 34.3 °F /  1.3 °C 29.86in /  1011.1hPa Calm   2.0mph /  3.2km/h 30% 0.00in /  0mm 105.0 W/m2
09:01 67.6 °F /  19.8 °C 35.1 °F /  1.7 °C 29.86in /  1011.1hPa ENE 2.9mph /  4.7km/h 4.0mph /  6.4km/h 30% 0.00in /  0mm 111.0 W/m2
09:07 68.7 °F /  20.4 °C 35.2 °F /  1.8 °C 29.86in /  1011.1hPa Calm   2.0mph /  3.2km/h 29% 0.00in /  0mm 116.0 W/m2
09:13 69.6 °F /  20.9 °C 35.1 °F /  1.7 °C 29.86in /  1011.1hPa ENE 2.0mph /  3.2km/h 4.0mph /  6.4km/h 28% 0.00in /  0mm 120.0 W/m2
09:19 70.5 °F /  21.4 °C 34.9 °F /  1.6 °C 29.86in /  1011.1hPa ENE 0.9mph /  1.4km/h 6.0mph /  9.7km/h 27% 0.00in /  0mm 127.0 W/m2
09:25 71.2 °F /  21.8 °C 35.6 °F /  2 °C 29.86in /  1011.1hPa NNE 2.0mph /  3.2km/h 4.0mph /  6.4km/h 27% 0.00in /  0mm 128.0 W/m2
09:31 71.8 °F /  22.1 °C 35.1 °F /  1.7 °C 29.86in /  1011.1hPa NE 2.9mph /  4.7km/h 6.0mph /  9.7km/h 26% 0.00in /  0mm 134.0 W/m2
09:37 72.3 °F /  22.4 °C 35.6 °F /  2 °C 29.85in /  1010.7hPa NE 0.9mph /  1.4km/h 7.0mph /  11.3km/h 26% 0.00in /  0mm 427.0 W/m2
09:43 72.9 °F /  22.7 °C 36.0 °F /  2.2 °C 29.85in /  1010.7hPa Calm   8.0mph /  12.9km/h 26% 0.00in /  0mm 459.0 W/m2
09:49 73.6 °F /  23.1 °C 35.6 °F /  2 °C 29.86in /  1011.1hPa ENE 4.0mph /  6.4km/h 9.0mph /  14.5km/h 25% 0.00in /  0mm 476.0 W/m2
09:55 74.1 °F /  23.4 °C 36.0 °F /  2.2 °C 29.85in /  1010.7hPa NE 4.0mph /  6.4km/h 5.0mph /  8km/h 25% 0.00in /  0mm 494.0 W/m2
10:01 74.8 °F /  23.8 °C 35.6 °F /  2 °C 29.85in /  1010.7hPa East 2.0mph /  3.2km/h 7.0mph /  11.3km/h 24% 0.00in /  0mm 508.0 W/m2
10:07 75.4 °F /  24.1 °C 36.1 °F /  2.3 °C 29.85in /  1010.7hPa NE 4.9mph /  7.9km/h 8.0mph /  12.9km/h 24% 0.00in /  0mm 527.0 W/m2
10:13 75.7 °F /  24.3 °C 35.2 °F /  1.8 °C 29.85in /  1010.7hPa ESE 4.9mph /  7.9km/h 8.0mph /  12.9km/h 23% 0.00in /  0mm 545.0 W/m2
10:19 76.5 °F /  24.7 °C 36.0 °F /  2.2 °C 29.85in /  1010.7hPa NE 2.9mph /  4.7km/h 5.0mph /  8km/h 23% 0.00in /  0mm 559.0 W/m2
10:25 77.0 °F /  25 °C 36.3 °F /  2.4 °C 29.85in /  1010.7hPa NNE 0.9mph /  1.4km/h 9.0mph /  14.5km/h 23% 0.00in /  0mm 577.0 W/m2
10:31 77.4 °F /  25.2 °C 35.6 °F /  2 °C 29.85in /  1010.7hPa East 4.9mph /  7.9km/h 7.0mph /  11.3km/h 22% 0.00in /  0mm 594.0 W/m2
10:38 77.9 °F /  25.5 °C 36.0 °F /  2.2 °C 29.85in /  1010.7hPa NNE 4.0mph /  6.4km/h 8.0mph /  12.9km/h 22% 0.00in /  0mm 608.0 W/m2
10:44 78.3 °F /  25.7 °C 36.3 °F /  2.4 °C 29.85in /  1010.7hPa ENE 2.0mph /  3.2km/h 4.0mph /  6.4km/h 22% 0.00in /  0mm 624.0 W/m2
10:50 78.8 °F /  26 °C 35.6 °F /  2 °C 29.85in /  1010.7hPa NNE 0.9mph /  1.4km/h 4.0mph /  6.4km/h 21% 0.00in /  0mm 638.0 W/m2
10:56 79.3 °F /  26.3 °C 36.0 °F /  2.2 °C 29.85in /  1010.7hPa ESE 2.0mph /  3.2km/h 6.0mph /  9.7km/h 21% 0.00in /  0mm 650.0 W/m2
11:02 80.1 °F /  26.7 °C 35.4 °F /  1.9 °C 29.84in /  1010.4hPa Calm   7.0mph /  11.3km/h 20% 0.00in /  0mm 661.0 W/m2
11:08 80.4 °F /  26.9 °C 35.6 °F /  2 °C 29.85in /  1010.7hPa Calm   7.0mph /  11.3km/h 20% 0.00in /  0mm 677.0 W/m2
11:14 81.0 °F /  27.2 °C 34.9 °F /  1.6 °C 29.84in /  1010.4hPa NNE 0.9mph /  1.4km/h 5.0mph /  8km/h 19% 0.00in /  0mm 686.0 W/m2
11:20 81.3 °F /  27.4 °C 35.1 °F /  1.7 °C 29.84in /  1010.4hPa NE 0.9mph /  1.4km/h 4.0mph /  6.4km/h 19% 0.00in /  0mm 694.0 W/m2
11:26 81.9 °F /  27.7 °C 35.6 °F /  2 °C 29.84in /  1010.4hPa ENE 2.9mph /  4.7km/h 4.0mph /  6.4km/h 19% 0.00in /  0mm 703.0 W/m2
11:38 82.9 °F /  28.3 °C 35.1 °F /  1.7 °C 29.83in /  1010hPa SE 6.9mph /  11.1km/h 10.0mph /  16.1km/h 18% 0.00in /  0mm 726.0 W/m2
11:44 83.1 °F /  28.4 °C 36.7 °F /  2.6 °C 29.83in /  1010hPa ENE 2.9mph /  4.7km/h 4.0mph /  6.4km/h 19% 0.00in /  0mm 733.0 W/m2
11:50 83.7 °F /  28.7 °C 35.6 °F /  2 °C 29.83in /  1010hPa NE 0.9mph /  1.4km/h 4.0mph /  6.4km/h 18% 0.00in /  0mm 742.0 W/m2
11:56 84.2 °F /  29 °C 36.1 °F /  2.3 °C 29.83in /  1010hPa Calm   3.0mph /  4.8km/h 18% 0.00in /  0mm 742.0 W/m2
12:02 84.6 °F /  29.2 °C 34.9 °F /  1.6 °C 29.82in /  1009.7hPa East 2.9mph /  4.7km/h 5.0mph /  8km/h 17% 0.00in /  0mm 747.0 W/m2
12:08 84.9 °F /  29.4 °C 35.2 °F /  1.8 °C 29.82in /  1009.7hPa SE 4.9mph /  7.9km/h 6.0mph /  9.7km/h 17% 0.00in /  0mm 751.0 W/m2
12:14 85.3 °F /  29.6 °C 35.6 °F /  2 °C 29.81in /  1009.4hPa Calm   1.0mph /  1.6km/h 17% 0.00in /  0mm 765.0 W/m2
12:20 85.8 °F /  29.9 °C 36.0 °F /  2.2 °C 29.81in /  1009.4hPa SSE 2.0mph /  3.2km/h 7.0mph /  11.3km/h 17% 0.00in /  0mm 777.0 W/m2
12:26 86.4 °F /  30.2 °C 34.9 °F /  1.6 °C 29.80in /  1009hPa Calm   3.0mph /  4.8km/h 16% 0.00in /  0mm 777.0 W/m2
12:32 86.4 °F /  30.2 °C 36.3 °F /  2.4 °C 29.80in /  1009hPa SW 4.0mph /  6.4km/h 7.0mph /  11.3km/h 17% 0.00in /  0mm 765.0 W/m2
12:38 86.2 °F /  30.1 °C 36.3 °F /  2.4 °C 29.80in /  1009hPa SW 4.0mph /  6.4km/h 6.0mph /  9.7km/h 17% 0.00in /  0mm 765.0 W/m2
12:44 85.6 °F /  29.8 °C 35.8 °F /  2.1 °C 29.80in /  1009hPa NNW 2.0mph /  3.2km/h 4.0mph /  6.4km/h 17% 0.00in /  0mm 758.0 W/m2
12:50 86.2 °F /  30.1 °C 36.3 °F /  2.4 °C 29.79in /  1008.7hPa Calm   1.0mph /  1.6km/h 17% 0.00in /  0mm 756.0 W/m2
12:56 86.7 °F /  30.4 °C 36.7 °F /  2.6 °C 29.79in /  1008.7hPa Calm   4.0mph /  6.4km/h 17% 0.00in /  0mm 752.0 W/m2
13:02 86.7 °F /  30.4 °C 36.7 °F /  2.6 °C 29.78in /  1008.4hPa Calm   4.0mph /  6.4km/h 17% 0.00in /  0mm 752.0 W/m2
13:08 86.7 °F /  30.4 °C 35.2 °F /  1.8 °C 29.78in /  1008.4hPa West 4.9mph /  7.9km/h 5.0mph /  8km/h 16% 0.00in /  0mm 747.0 W/m2
13:14 87.1 °F /  30.6 °C 35.4 °F /  1.9 °C 29.78in /  1008.4hPa Calm   4.0mph /  6.4km/h 16% 0.00in /  0mm 749.0 W/m2
13:20 87.1 °F /  30.6 °C 35.4 °F /  1.9 °C 29.78in /  1008.4hPa Calm   3.0mph /  4.8km/h 16% 0.00in /  0mm 744.0 W/m2
13:27 87.3 °F /  30.7 °C 35.6 °F /  2 °C 29.77in /  1008hPa Calm   5.0mph /  8km/h 16% 0.00in /  0mm 737.0 W/m2
13:33 87.6 °F /  30.9 °C 34.3 °F /  1.3 °C 29.77in /  1008hPa Calm   5.0mph /  8km/h 15% 0.00in /  0mm 731.0 W/m2
13:39 87.6 °F /  30.9 °C 36.0 °F /  2.2 °C 29.77in /  1008hPa Calm   1.0mph /  1.6km/h 16% 0.00in /  0mm 721.0 W/m2
13:45 88.0 °F /  31.1 °C 34.5 °F /  1.4 °C 29.76in /  1007.7hPa Calm   2.0mph /  3.2km/h 15% 0.00in /  0mm 717.0 W/m2
13:51 88.3 °F /  31.3 °C 34.9 °F /  1.6 °C 29.76in /  1007.7hPa NW 2.0mph /  3.2km/h 6.0mph /  9.7km/h 15% 0.00in /  0mm 708.0 W/m2
13:57 88.7 °F /  31.5 °C 33.4 °F /  0.8 °C 29.76in /  1007.7hPa NNE 2.0mph /  3.2km/h 7.0mph /  11.3km/h 14% 0.00in /  0mm 710.0 W/m2
14:03 89.1 °F /  31.7 °C 33.6 °F /  0.9 °C 29.75in /  1007.3hPa North 2.9mph /  4.7km/h 8.0mph /  12.9km/h 14% 0.00in /  0mm 698.0 W/m2
14:09 89.1 °F /  31.7 °C 33.6 °F /  0.9 °C 29.75in /  1007.3hPa NE 2.9mph /  4.7km/h 7.0mph /  11.3km/h 14% 0.00in /  0mm 687.0 W/m2
14:15 89.1 °F /  31.7 °C 33.6 °F /  0.9 °C 29.75in /  1007.3hPa WSW 0.9mph /  1.4km/h 2.0mph /  3.2km/h 14% 0.00in /  0mm 673.0 W/m2
14:21 89.2 °F /  31.8 °C 33.8 °F /  1 °C 29.75in /  1007.3hPa North 2.0mph /  3.2km/h 4.0mph /  6.4km/h 14% 0.00in /  0mm 663.0 W/m2
14:27 89.4 °F /  31.9 °C 34.0 °F /  1.1 °C 29.74in /  1007hPa SSW 6.0mph /  9.7km/h 8.0mph /  12.9km/h 14% 0.00in /  0mm 664.0 W/m2
14:33 89.1 °F /  31.7 °C 33.6 °F /  0.9 °C 29.74in /  1007hPa Calm   6.0mph /  9.7km/h 14% 0.00in /  0mm 647.0 W/m2
14:40 89.2 °F /  31.8 °C 33.8 °F /  1 °C 29.74in /  1007hPa NNW 2.9mph /  4.7km/h 7.0mph /  11.3km/h 14% 0.00in /  0mm 633.0 W/m2
14:46 89.8 °F /  32.1 °C 34.2 °F /  1.2 °C 29.73in /  1006.7hPa North 0.9mph /  1.4km/h 6.0mph /  9.7km/h 14% 0.00in /  0mm 626.0 W/m2
14:52 89.6 °F /  32 °C 34.2 °F /  1.2 °C 29.73in /  1006.7hPa Calm   3.0mph /  4.8km/h 14% 0.00in /  0mm 622.0 W/m2
14:58 89.8 °F /  32.1 °C 34.2 °F /  1.2 °C 29.72in /  1006.3hPa NE 6.0mph /  9.7km/h 6.0mph /  9.7km/h 14% 0.00in /  0mm 599.0 W/m2
15:04 90.0 °F /  32.2 °C 34.3 °F /  1.3 °C 29.72in /  1006.3hPa Calm   2.0mph /  3.2km/h 14% 0.00in /  0mm 580.0 W/m2
15:10 90.3 °F /  32.4 °C 32.9 °F /  0.5 °C 29.72in /  1006.3hPa Calm   3.0mph /  4.8km/h 13% 0.00in /  0mm 563.0 W/m2
15:16 90.1 °F /  32.3 °C 32.7 °F /  0.4 °C 29.72in /  1006.3hPa WSW 0.9mph /  1.4km/h 4.0mph /  6.4km/h 13% 0.00in /  0mm 520.0 W/m2
15:22 90.1 °F /  32.3 °C 34.5 °F /  1.4 °C 29.71in /  1006hPa NNW 4.0mph /  6.4km/h 4.0mph /  6.4km/h 14% 0.00in /  0mm 520.0 W/m2
15:28 90.3 °F /  32.4 °C 32.9 °F /  0.5 °C 29.71in /  1006hPa Calm   4.0mph /  6.4km/h 13% 0.00in /  0mm 508.0 W/m2
15:34 90.5 °F /  32.5 °C 32.9 °F /  0.5 °C 29.71in /  1006hPa ENE 4.9mph /  7.9km/h 9.0mph /  14.5km/h 13% 0.00in /  0mm 490.0 W/m2
15:47 90.9 °F /  32.7 °C 31.3 °F /  -0.4 °C 29.70in /  1005.6hPa WNW 0.9mph /  1.4km/h 9.0mph /  14.5km/h 12% 0.00in /  0mm 459.0 W/m2
15:53 91.0 °F /  32.8 °C 31.5 °F /  -0.3 °C 29.70in /  1005.6hPa North 4.0mph /  6.4km/h 8.0mph /  12.9km/h 12% 0.00in /  0mm 432.0 W/m2
15:59 91.0 °F /  32.8 °C 31.5 °F /  -0.3 °C 29.70in /  1005.6hPa Calm   6.0mph /  9.7km/h 12% 0.00in /  0mm 410.0 W/m2
16:05 91.2 °F /  32.9 °C 31.5 °F /  -0.3 °C 29.70in /  1005.6hPa WSW 4.9mph /  7.9km/h 9.0mph /  14.5km/h 12% 0.00in /  0mm 387.0 W/m2
16:17 90.7 °F /  32.6 °C 31.1 °F /  -0.5 °C 29.71in /  1006hPa Calm   8.0mph /  12.9km/h 12% 0.00in /  0mm 366.0 W/m2
16:23 90.7 °F /  32.6 °C 31.1 °F /  -0.5 °C 29.71in /  1006hPa WNW 4.9mph /  7.9km/h 7.0mph /  11.3km/h 12% 0.00in /  0mm 350.0 W/m2
16:29 90.3 °F /  32.4 °C 30.7 °F /  -0.7 °C 29.71in /  1006hPa West 2.0mph /  3.2km/h 2.0mph /  3.2km/h 12% 0.00in /  0mm 323.0 W/m2
16:35 90.5 °F /  32.5 °C 30.9 °F /  -0.6 °C 29.71in /  1006hPa NNW 4.0mph /  6.4km/h 6.0mph /  9.7km/h 12% 0.00in /  0mm 306.0 W/m2
16:42 90.7 °F /  32.6 °C 31.1 °F /  -0.5 °C 29.71in /  1006hPa NNW 4.0mph /  6.4km/h 8.0mph /  12.9km/h 12% 0.00in /  0mm 279.0 W/m2
16:48 90.3 °F /  32.4 °C 30.7 °F /  -0.7 °C 29.72in /  1006.3hPa WSW 0.9mph /  1.4km/h 8.0mph /  12.9km/h 12% 0.00in /  0mm 265.0 W/m2
16:54 90.1 °F /  32.3 °C 30.7 °F /  -0.7 °C 29.72in /  1006.3hPa Calm   8.0mph /  12.9km/h 12% 0.00in /  0mm 246.0 W/m2
17:06 89.8 °F /  32.1 °C 30.4 °F /  -0.9 °C 29.72in /  1006.3hPa West 4.9mph /  7.9km/h 6.0mph /  9.7km/h 12% 0.00in /  0mm 214.0 W/m2
17:12 89.4 °F /  31.9 °C 32.2 °F /  0.1 °C 29.72in /  1006.3hPa NNW 2.0mph /  3.2km/h 5.0mph /  8km/h 13% 0.00in /  0mm 197.0 W/m2
17:24 89.2 °F /  31.8 °C 32.0 °F /  0 °C 29.72in /  1006.3hPa WNW 0.9mph /  1.4km/h 3.0mph /  4.8km/h 13% 0.00in /  0mm 158.0 W/m2
17:30 89.1 °F /  31.7 °C 29.8 °F /  -1.2 °C 29.72in /  1006.3hPa NNW 2.9mph /  4.7km/h 7.0mph /  11.3km/h 12% 0.00in /  0mm 137.0 W/m2
17:36 88.5 °F /  31.4 °C 31.5 °F /  -0.3 °C 29.72in /  1006.3hPa NNW 4.9mph /  7.9km/h 9.0mph /  14.5km/h 13% 0.00in /  0mm 121.0 W/m2
17:43 88.2 °F /  31.2 °C 31.1 °F /  -0.5 °C 29.73in /  1006.7hPa Calm   6.0mph /  9.7km/h 13% 0.00in /  0mm 104.0 W/m2
17:49 87.6 °F /  30.9 °C 30.7 °F /  -0.7 °C 29.73in /  1006.7hPa Calm   4.0mph /  6.4km/h 13% 0.00in /  0mm 88.0 W/m2
17:55 87.4 °F /  30.8 °C 30.6 °F /  -0.8 °C 29.73in /  1006.7hPa Calm   1.0mph /  1.6km/h 13% 0.00in /  0mm 74.0 W/m2
18:01 87.1 °F /  30.6 °C 30.2 °F /  -1 °C 29.73in /  1006.7hPa SW 2.9mph /  4.7km/h 8.0mph /  12.9km/h 13% 0.00in /  0mm 53.0 W/m2
18:13 85.6 °F /  29.8 °C 30.9 °F /  -0.6 °C 29.74in /  1007hPa Calm   2.0mph /  3.2km/h 14% 0.00in /  0mm 30.0 W/m2
18:19 84.9 °F /  29.4 °C 30.4 °F /  -0.9 °C 29.74in /  1007hPa West 0.9mph /  1.4km/h 6.0mph /  9.7km/h 14% 0.00in /  0mm 23.0 W/m2
18:26 84.6 °F /  29.2 °C 30.2 °F /  -1 °C 29.74in /  1007hPa Calm   4.0mph /  6.4km/h 14% 0.00in /  0mm 16.0 W/m2
18:32 84.0 °F /  28.9 °C 31.5 °F /  -0.3 °C 29.75in /  1007.3hPa WSW 2.0mph /  3.2km/h 6.0mph /  9.7km/h 15% 0.00in /  0mm 11.0 W/m2
18:38 83.7 °F /  28.7 °C 31.1 °F /  -0.5 °C 29.75in /  1007.3hPa West 2.0mph /  3.2km/h 7.0mph /  11.3km/h 15% 0.00in /  0mm 5.0 W/m2
18:44 83.1 °F /  28.4 °C 30.7 °F /  -0.7 °C 29.75in /  1007.3hPa Calm   3.0mph /  4.8km/h 15% 0.00in /  0mm 0.0 W/m2
18:50 82.8 °F /  28.2 °C 30.4 °F /  -0.9 °C 29.76in /  1007.7hPa West 0.9mph /  1.4km/h 1.0mph /  1.6km/h 15% 0.00in /  0mm 0.0 W/m2
18:59 81.9 °F /  27.7 °C 29.7 °F /  -1.3 °C 29.76in /  1007.7hPa WSW 0.9mph /  1.4km/h 1.0mph /  1.6km/h 15% 0.00in /  0mm 0.0 W/m2
19:06 81.3 °F /  27.4 °C 30.9 °F /  -0.6 °C 29.77in /  1008hPa Calm   1.0mph /  1.6km/h 16% 0.00in /  0mm 0.0 W/m2
19:13 81.0 °F /  27.2 °C 30.6 °F /  -0.8 °C 29.78in /  1008.4hPa Calm   1.0mph /  1.6km/h 16% 0.00in /  0mm 0.0 W/m2
19:19 80.2 °F /  26.8 °C 30.0 °F /  -1.1 °C 29.78in /  1008.4hPa Calm     16% 0.00in /  0mm 0.0 W/m2
19:25 79.7 °F /  26.5 °C 31.1 °F /  -0.5 °C 29.78in /  1008.4hPa Calm     17% 0.00in /  0mm 0.0 W/m2
19:31 79.2 °F /  26.2 °C 32.0 °F /  0 °C 29.78in /  1008.4hPa SSW 0.9mph /  1.4km/h 6.0mph /  9.7km/h 18% 0.00in /  0mm 0.0 W/m2
19:37 79.0 °F /  26.1 °C 35.8 °F /  2.1 °C 29.79in /  1008.7hPa Calm     21% 0.00in /  0mm 0.0 W/m2
19:43 78.6 °F /  25.9 °C 35.4 °F /  1.9 °C 29.79in /  1008.7hPa SE 2.0mph /  3.2km/h 6.0mph /  9.7km/h 21% 0.00in /  0mm 0.0 W/m2
19:49 78.4 °F /  25.8 °C 36.5 °F /  2.5 °C 29.80in /  1009hPa Calm   3.0mph /  4.8km/h 22% 0.00in /  0mm 0.0 W/m2
19:55 78.1 °F /  25.6 °C 36.1 °F /  2.3 °C 29.80in /  1009hPa South 6.9mph /  11.1km/h 8.0mph /  12.9km/h 22% 0.00in /  0mm 0.0 W/m2
20:01 77.7 °F /  25.4 °C 37.0 °F /  2.8 °C 29.80in /  1009hPa South 0.9mph /  1.4km/h 9.0mph /  14.5km/h 23% 0.00in /  0mm 0.0 W/m2
20:07 77.4 °F /  25.2 °C 36.7 °F /  2.6 °C 29.81in /  1009.4hPa Calm   5.0mph /  8km/h 23% 0.00in /  0mm 0.0 W/m2
20:13 77.0 °F /  25 °C 36.3 °F /  2.4 °C 29.81in /  1009.4hPa Calm   9.0mph /  14.5km/h 23% 0.00in /  0mm 0.0 W/m2
20:19 76.6 °F /  24.8 °C 37.2 °F /  2.9 °C 29.81in /  1009.4hPa SSE 2.9mph /  4.7km/h 4.0mph /  6.4km/h 24% 0.00in /  0mm 0.0 W/m2
20:25 76.3 °F /  24.6 °C 36.9 °F /  2.7 °C 29.81in /  1009.4hPa SE 0.9mph /  1.4km/h 8.0mph /  12.9km/h 24% 0.00in /  0mm 0.0 W/m2
20:32 75.9 °F /  24.4 °C 36.5 °F /  2.5 °C 29.81in /  1009.4hPa SE 6.0mph /  9.7km/h 11.0mph /  17.7km/h 24% 0.00in /  0mm 0.0 W/m2
20:40 75.4 °F /  24.1 °C 37.0 °F /  2.8 °C 29.82in /  1009.7hPa Calm   12.0mph /  19.3km/h 25% 0.00in /  0mm 0.0 W/m2
20:46 74.8 °F /  23.8 °C 37.6 °F /  3.1 °C 29.82in /  1009.7hPa WSW 2.9mph /  4.7km/h 13.0mph /  20.9km/h 26% 0.00in /  0mm 0.0 W/m2
20:52 74.5 °F /  23.6 °C 37.4 °F /  3 °C 29.82in /  1009.7hPa Calm   10.0mph /  16.1km/h 26% 0.00in /  0mm 0.0 W/m2
20:58 73.9 °F /  23.3 °C 36.9 °F /  2.7 °C 29.82in /  1009.7hPa SSE 8.1mph /  13km/h 11.0mph /  17.7km/h 26% 0.00in /  0mm 0.0 W/m2
21:04 73.6 °F /  23.1 °C 37.6 °F /  3.1 °C 29.82in /  1009.7hPa SSE 6.0mph /  9.7km/h 10.0mph /  16.1km/h 27% 0.00in /  0mm 0.0 W/m2
21:10 73.4 °F /  23 °C 37.4 °F /  3 °C 29.83in /  1010hPa South 0.9mph /  1.4km/h 7.0mph /  11.3km/h 27% 0.00in /  0mm 0.0 W/m2
21:16 73.0 °F /  22.8 °C 37.0 °F /  2.8 °C 29.83in /  1010hPa South 12.1mph /  19.5km/h 12.1mph /  19.5km/h 27% 0.00in /  0mm 0.0 W/m2
21:22 72.9 °F /  22.7 °C 37.8 °F /  3.2 °C 29.83in /  1010hPa Calm   6.0mph /  9.7km/h 28% 0.00in /  0mm 0.0 W/m2
21:29 72.5 °F /  22.5 °C 37.6 °F /  3.1 °C 29.83in /  1010hPa SSE 0.9mph /  1.4km/h 3.0mph /  4.8km/h 28% 0.00in /  0mm 0.0 W/m2
21:35 72.1 °F /  22.3 °C 37.2 °F /  2.9 °C 29.83in /  1010hPa Calm   4.0mph /  6.4km/h 28% 0.00in /  0mm 0.0 W/m2
21:41 72.0 °F /  22.2 °C 37.0 °F /  2.8 °C 29.83in /  1010hPa SSW 0.9mph /  1.4km/h 4.0mph /  6.4km/h 28% 0.00in /  0mm 0.0 W/m2
21:47 71.8 °F /  22.1 °C 36.9 °F /  2.7 °C 29.83in /  1010hPa Calm   2.0mph /  3.2km/h 28% 0.00in /  0mm 0.0 W/m2
21:53 71.6 °F /  22 °C 37.6 °F /  3.1 °C 29.84in /  1010.4hPa Calm   5.0mph /  8km/h 29% 0.00in /  0mm 0.0 W/m2
21:59 71.4 °F /  21.9 °C 37.6 °F /  3.1 °C 29.84in /  1010.4hPa Calm   4.0mph /  6.4km/h 29% 0.00in /  0mm 0.0 W/m2
22:05 71.2 °F /  21.8 °C 37.4 °F /  3 °C 29.84in /  1010.4hPa Calm   3.0mph /  4.8km/h 29% 0.00in /  0mm 0.0 W/m2
22:12 71.1 °F /  21.7 °C 37.2 °F /  2.9 °C 29.84in /  1010.4hPa Calm   3.0mph /  4.8km/h 29% 0.00in /  0mm 0.0 W/m2
22:18 70.9 °F /  21.6 °C 37.9 °F /  3.3 °C 29.84in /  1010.4hPa Calm   6.0mph /  9.7km/h 30% 0.00in /  0mm 0.0 W/m2
22:24 70.7 °F /  21.5 °C 37.8 °F /  3.2 °C 29.84in /  1010.4hPa South 4.0mph /  6.4km/h 4.0mph /  6.4km/h 30% 0.00in /  0mm 0.0 W/m2
22:30 70.5 °F /  21.4 °C 37.6 °F /  3.1 °C 29.84in /  1010.4hPa Calm   6.0mph /  9.7km/h 30% 0.00in /  0mm 0.0 W/m2
22:36 70.3 °F /  21.3 °C 37.4 °F /  3 °C 29.84in /  1010.4hPa Calm   5.0mph /  8km/h 30% 0.00in /  0mm 0.0 W/m2
22:42 70.2 °F /  21.2 °C 37.2 °F /  2.9 °C 29.84in /  1010.4hPa Calm   7.0mph /  11.3km/h 30% 0.00in /  0mm 0.0 W/m2
22:48 70.0 °F /  21.1 °C 37.0 °F /  2.8 °C 29.84in /  1010.4hPa ESE 2.9mph /  4.7km/h 3.0mph /  4.8km/h 30% 0.00in /  0mm 0.0 W/m2
22:54 69.6 °F /  20.9 °C 36.9 °F /  2.7 °C 29.84in /  1010.4hPa Calm   5.0mph /  8km/h 30% 0.00in /  0mm 0.0 W/m2
23:01 69.4 °F /  20.8 °C 37.4 °F /  3 °C 29.84in /  1010.4hPa Calm     31% 0.00in /  0mm 0.0 W/m2
23:07 69.1 °F /  20.6 °C 37.2 °F /  2.9 °C 29.84in /  1010.4hPa Calm     31% 0.00in /  0mm 0.0 W/m2
23:13 68.7 °F /  20.4 °C 36.9 °F /  2.7 °C 29.84in /  1010.4hPa Calm   1.0mph /  1.6km/h 31% 0.00in /  0mm 0.0 W/m2
23:19 68.4 °F /  20.2 °C 37.4 °F /  3 °C 29.84in /  1010.4hPa Calm   1.0mph /  1.6km/h 32% 0.00in /  0mm 0.0 W/m2
23:25 68.0 °F /  20 °C 37.0 °F /  2.8 °C 29.84in /  1010.4hPa SSE 0.9mph /  1.4km/h 1.0mph /  1.6km/h 32% 0.00in /  0mm 0.0 W/m2
23:31 67.6 °F /  19.8 °C 36.7 °F /  2.6 °C 29.84in /  1010.4hPa SE 2.0mph /  3.2km/h 2.0mph /  3.2km/h 32% 0.00in /  0mm 0.0 W/m2
23:37 67.5 °F /  19.7 °C 36.5 °F /  2.5 °C 29.83in /  1010hPa SE 0.9mph /  1.4km/h 3.0mph /  4.8km/h 32% 0.00in /  0mm 0.0 W/m2
23:43 66.9 °F /  19.4 °C 36.9 °F /  2.7 °C 29.83in /  1010hPa Calm   1.0mph /  1.6km/h 33% 0.00in /  0mm 0.0 W/m2
23:50 66.6 °F /  19.2 °C 36.5 °F /  2.5 °C 29.83in /  1010hPa SSE 0.9mph /  1.4km/h 3.0mph /  4.8km/h 33% 0.00in /  0mm 0.0 W/m2
23:56 66.0 °F /  18.9 °C 36.1 °F /  2.3 °C 29.83in /  1010hPa South 2.0mph /  3.2km/h 3.0mph /  4.8km/h 33% 0.00in /  0mm 0.0 W/m2
Olympia, Windhoek, Namibia
Compliments of Weather Underground - 3 mb